sensor_id;sensor_type;location;lat;lon;timestamp;P1;durP1;ratioP1;P2;durP2;ratioP2
4957;SDS011;2494;51.872;9.688;2022-08-07T00:00:39;1.53;;;1.40;;
4957;SDS011;2494;51.872;9.688;2022-08-07T00:03:07;1.53;;;1.43;;
4957;SDS011;2494;51.872;9.688;2022-08-07T00:05:34;1.73;;;1.60;;
4957;SDS011;2494;51.872;9.688;2022-08-07T00:08:01;1.37;;;1.27;;
4957;SDS011;2494;51.872;9.688;2022-08-07T00:10:29;1.70;;;1.60;;
4957;SDS011;2494;51.872;9.688;2022-08-07T00:12:56;1.63;;;1.50;;
4957;SDS011;2494;51.872;9.688;2022-08-07T00:15:23;1.83;;;1.40;;
4957;SDS011;2494;51.872;9.688;2022-08-07T00:17:49;1.93;;;1.83;;
4957;SDS011;2494;51.872;9.688;2022-08-07T00:20:20;2.30;;;1.73;;
4957;SDS011;2494;51.872;9.688;2022-08-07T00:22:52;2.17;;;1.83;;
4957;SDS011;2494;51.872;9.688;2022-08-07T00:25:18;2.33;;;2.13;;
4957;SDS011;2494;51.872;9.688;2022-08-07T00:27:50;2.10;;;2.00;;
4957;SDS011;2494;51.872;9.688;2022-08-07T00:30:17;2.73;;;2.50;;
4957;SDS011;2494;51.872;9.688;2022-08-07T00:32:46;2.23;;;2.00;;
4957;SDS011;2494;51.872;9.688;2022-08-07T00:35:12;2.60;;;2.40;;
4957;SDS011;2494;51.872;9.688;2022-08-07T00:37:40;7.53;;;3.90;;
4957;SDS011;2494;51.872;9.688;2022-08-07T00:40:06;2.20;;;2.00;;
4957;SDS011;2494;51.872;9.688;2022-08-07T00:42:33;2.23;;;1.80;;
4957;SDS011;2494;51.872;9.688;2022-08-07T00:45:00;2.63;;;2.00;;
4957;SDS011;2494;51.872;9.688;2022-08-07T00:47:26;1.90;;;1.77;;
4957;SDS011;2494;51.872;9.688;2022-08-07T00:49:54;1.80;;;1.70;;
4957;SDS011;2494;51.872;9.688;2022-08-07T00:52:22;4.70;;;2.13;;
4957;SDS011;2494;51.872;9.688;2022-08-07T00:54:50;2.50;;;1.90;;
4957;SDS011;2494;51.872;9.688;2022-08-07T00:57:17;1.60;;;1.50;;
4957;SDS011;2494;51.872;9.688;2022-08-07T00:59:44;1.60;;;1.50;;
4957;SDS011;2494;51.872;9.688;2022-08-07T01:02:10;2.53;;;1.53;;
4957;SDS011;2494;51.872;9.688;2022-08-07T01:04:36;2.90;;;2.07;;
4957;SDS011;2494;51.872;9.688;2022-08-07T01:07:06;4.70;;;2.10;;
4957;SDS011;2494;51.872;9.688;2022-08-07T01:09:33;2.60;;;2.40;;
4957;SDS011;2494;51.872;9.688;2022-08-07T01:12:02;1.90;;;1.80;;
4957;SDS011;2494;51.872;9.688;2022-08-07T01:14:28;2.37;;;2.20;;
4957;SDS011;2494;51.872;9.688;2022-08-07T01:16:55;1.90;;;1.80;;
4957;SDS011;2494;51.872;9.688;2022-08-07T01:19:22;3.13;;;2.20;;
4957;SDS011;2494;51.872;9.688;2022-08-07T01:21:52;2.60;;;2.40;;
4957;SDS011;2494;51.872;9.688;2022-08-07T01:24:19;2.80;;;2.60;;
4957;SDS011;2494;51.872;9.688;2022-08-07T01:26:46;2.37;;;2.10;;
4957;SDS011;2494;51.872;9.688;2022-08-07T01:29:17;2.57;;;2.00;;
4957;SDS011;2494;51.872;9.688;2022-08-07T01:31:43;2.40;;;2.20;;
4957;SDS011;2494;51.872;9.688;2022-08-07T01:34:10;2.37;;;2.17;;
4957;SDS011;2494;51.872;9.688;2022-08-07T01:36:38;2.17;;;1.90;;
4957;SDS011;2494;51.872;9.688;2022-08-07T01:39:06;2.40;;;2.20;;
4957;SDS011;2494;51.872;9.688;2022-08-07T01:41:34;3.50;;;2.10;;
4957;SDS011;2494;51.872;9.688;2022-08-07T01:44:01;2.93;;;2.70;;
4957;SDS011;2494;51.872;9.688;2022-08-07T01:46:28;2.73;;;2.37;;
4957;SDS011;2494;51.872;9.688;2022-08-07T01:48:55;2.27;;;2.10;;
4957;SDS011;2494;51.872;9.688;2022-08-07T01:51:23;2.30;;;2.20;;
4957;SDS011;2494;51.872;9.688;2022-08-07T01:53:51;2.40;;;2.10;;
4957;SDS011;2494;51.872;9.688;2022-08-07T01:56:23;3.57;;;2.43;;
4957;SDS011;2494;51.872;9.688;2022-08-07T01:58:51;3.53;;;2.53;;
4957;SDS011;2494;51.872;9.688;2022-08-07T02:01:21;2.57;;;2.13;;
4957;SDS011;2494;51.872;9.688;2022-08-07T02:03:51;5.47;;;2.97;;
4957;SDS011;2494;51.872;9.688;2022-08-07T02:06:19;2.80;;;2.60;;
4957;SDS011;2494;51.872;9.688;2022-08-07T02:08:46;3.00;;;2.70;;
4957;SDS011;2494;51.872;9.688;2022-08-07T02:11:14;2.90;;;2.60;;
4957;SDS011;2494;51.872;9.688;2022-08-07T02:13:42;4.37;;;2.70;;
4957;SDS011;2494;51.872;9.688;2022-08-07T02:16:09;2.87;;;2.67;;
4957;SDS011;2494;51.872;9.688;2022-08-07T02:18:36;3.67;;;3.37;;
4957;SDS011;2494;51.872;9.688;2022-08-07T02:21:04;3.73;;;3.43;;
4957;SDS011;2494;51.872;9.688;2022-08-07T02:23:32;3.67;;;3.47;;
4957;SDS011;2494;51.872;9.688;2022-08-07T02:26:00;3.20;;;2.90;;
4957;SDS011;2494;51.872;9.688;2022-08-07T02:28:30;3.90;;;3.60;;
4957;SDS011;2494;51.872;9.688;2022-08-07T02:31:02;4.87;;;3.90;;
4957;SDS011;2494;51.872;9.688;2022-08-07T02:33:30;3.50;;;3.20;;
4957;SDS011;2494;51.872;9.688;2022-08-07T02:36:02;3.20;;;3.00;;
4957;SDS011;2494;51.872;9.688;2022-08-07T02:38:31;4.07;;;3.80;;
4957;SDS011;2494;51.872;9.688;2022-08-07T02:40:58;3.40;;;3.00;;
4957;SDS011;2494;51.872;9.688;2022-08-07T02:43:25;3.03;;;2.80;;
4957;SDS011;2494;51.872;9.688;2022-08-07T02:45:53;3.43;;;3.13;;
4957;SDS011;2494;51.872;9.688;2022-08-07T02:48:21;3.27;;;2.97;;
4957;SDS011;2494;51.872;9.688;2022-08-07T02:50:49;3.37;;;3.07;;
4957;SDS011;2494;51.872;9.688;2022-08-07T02:53:20;3.47;;;3.27;;
4957;SDS011;2494;51.872;9.688;2022-08-07T02:55:47;3.57;;;3.27;;
4957;SDS011;2494;51.872;9.688;2022-08-07T02:58:16;2.93;;;2.73;;
4957;SDS011;2494;51.872;9.688;2022-08-07T03:00:46;2.90;;;2.70;;
4957;SDS011;2494;51.872;9.688;2022-08-07T03:03:15;3.17;;;2.93;;
4957;SDS011;2494;51.872;9.688;2022-08-07T03:05:43;3.27;;;2.97;;
4957;SDS011;2494;51.872;9.688;2022-08-07T03:08:14;3.03;;;2.80;;
4957;SDS011;2494;51.872;9.688;2022-08-07T03:10:43;3.33;;;3.13;;
4957;SDS011;2494;51.872;9.688;2022-08-07T03:13:10;4.90;;;3.23;;
4957;SDS011;2494;51.872;9.688;2022-08-07T03:15:36;4.80;;;3.50;;
4957;SDS011;2494;51.872;9.688;2022-08-07T03:18:03;3.40;;;2.73;;
4957;SDS011;2494;51.872;9.688;2022-08-07T03:20:29;3.20;;;2.90;;
4957;SDS011;2494;51.872;9.688;2022-08-07T03:22:57;4.17;;;3.77;;
4957;SDS011;2494;51.872;9.688;2022-08-07T03:25:30;4.60;;;4.20;;
4957;SDS011;2494;51.872;9.688;2022-08-07T03:27:57;3.30;;;3.00;;
4957;SDS011;2494;51.872;9.688;2022-08-07T03:30:26;3.30;;;3.00;;
4957;SDS011;2494;51.872;9.688;2022-08-07T03:32:54;3.23;;;3.03;;
4957;SDS011;2494;51.872;9.688;2022-08-07T03:35:22;4.93;;;3.10;;
4957;SDS011;2494;51.872;9.688;2022-08-07T03:37:52;4.57;;;3.10;;
4957;SDS011;2494;51.872;9.688;2022-08-07T03:40:20;5.50;;;3.67;;
4957;SDS011;2494;51.872;9.688;2022-08-07T03:42:49;3.53;;;3.33;;
4957;SDS011;2494;51.872;9.688;2022-08-07T03:45:15;2.70;;;2.40;;
4957;SDS011;2494;51.872;9.688;2022-08-07T03:47:42;4.00;;;3.40;;
4957;SDS011;2494;51.872;9.688;2022-08-07T03:50:16;2.83;;;2.63;;
4957;SDS011;2494;51.872;9.688;2022-08-07T03:52:44;3.90;;;2.60;;
4957;SDS011;2494;51.872;9.688;2022-08-07T03:55:12;3.80;;;3.50;;
4957;SDS011;2494;51.872;9.688;2022-08-07T03:57:40;4.43;;;4.07;;
4957;SDS011;2494;51.872;9.688;2022-08-07T04:00:07;2.90;;;2.70;;
4957;SDS011;2494;51.872;9.688;2022-08-07T04:02:35;4.57;;;3.20;;
4957;SDS011;2494;51.872;9.688;2022-08-07T04:05:02;3.40;;;3.10;;
4957;SDS011;2494;51.872;9.688;2022-08-07T04:07:31;6.00;;;3.50;;
4957;SDS011;2494;51.872;9.688;2022-08-07T04:09:57;3.53;;;3.23;;
4957;SDS011;2494;51.872;9.688;2022-08-07T04:12:25;2.77;;;2.57;;
4957;SDS011;2494;51.872;9.688;2022-08-07T04:14:53;3.00;;;2.70;;
4957;SDS011;2494;51.872;9.688;2022-08-07T04:17:22;2.83;;;2.63;;
4957;SDS011;2494;51.872;9.688;2022-08-07T04:19:48;3.30;;;3.10;;
4957;SDS011;2494;51.872;9.688;2022-08-07T04:22:15;3.00;;;2.80;;
4957;SDS011;2494;51.872;9.688;2022-08-07T04:24:44;4.00;;;3.20;;
4957;SDS011;2494;51.872;9.688;2022-08-07T04:27:11;3.10;;;2.67;;
4957;SDS011;2494;51.872;9.688;2022-08-07T04:29:39;2.57;;;2.37;;
4957;SDS011;2494;51.872;9.688;2022-08-07T04:32:08;4.03;;;3.63;;
4957;SDS011;2494;51.872;9.688;2022-08-07T04:34:35;2.83;;;2.63;;
4957;SDS011;2494;51.872;9.688;2022-08-07T04:37:01;2.40;;;2.10;;
4957;SDS011;2494;51.872;9.688;2022-08-07T04:39:29;2.83;;;2.60;;
4957;SDS011;2494;51.872;9.688;2022-08-07T04:41:55;2.40;;;2.30;;
4957;SDS011;2494;51.872;9.688;2022-08-07T04:44:23;3.20;;;3.00;;
4957;SDS011;2494;51.872;9.688;2022-08-07T04:46:53;3.20;;;2.90;;
4957;SDS011;2494;51.872;9.688;2022-08-07T04:49:26;3.60;;;3.10;;
4957;SDS011;2494;51.872;9.688;2022-08-07T04:51:58;2.47;;;2.13;;
4957;SDS011;2494;51.872;9.688;2022-08-07T04:54:27;2.60;;;2.40;;
4957;SDS011;2494;51.872;9.688;2022-08-07T04:56:56;1.90;;;1.80;;
4957;SDS011;2494;51.872;9.688;2022-08-07T04:59:25;1.80;;;1.70;;
4957;SDS011;2494;51.872;9.688;2022-08-07T05:01:55;2.00;;;1.53;;
4957;SDS011;2494;51.872;9.688;2022-08-07T05:04:25;2.13;;;1.60;;
4957;SDS011;2494;51.872;9.688;2022-08-07T05:06:57;1.60;;;1.50;;
4957;SDS011;2494;51.872;9.688;2022-08-07T05:09:26;1.60;;;1.50;;
4957;SDS011;2494;51.872;9.688;2022-08-07T05:11:54;1.67;;;1.40;;
4957;SDS011;2494;51.872;9.688;2022-08-07T05:14:22;1.50;;;1.40;;
4957;SDS011;2494;51.872;9.688;2022-08-07T05:16:51;2.80;;;1.47;;
4957;SDS011;2494;51.872;9.688;2022-08-07T05:19:19;2.73;;;1.53;;
4957;SDS011;2494;51.872;9.688;2022-08-07T05:21:46;1.50;;;1.40;;
4957;SDS011;2494;51.872;9.688;2022-08-07T05:24:15;1.50;;;1.40;;
4957;SDS011;2494;51.872;9.688;2022-08-07T05:26:42;2.57;;;1.50;;
4957;SDS011;2494;51.872;9.688;2022-08-07T05:29:09;1.90;;;1.80;;
4957;SDS011;2494;51.872;9.688;2022-08-07T05:31:37;1.60;;;1.50;;
4957;SDS011;2494;51.872;9.688;2022-08-07T05:34:04;1.50;;;1.40;;
4957;SDS011;2494;51.872;9.688;2022-08-07T05:36:31;4.50;;;1.60;;
4957;SDS011;2494;51.872;9.688;2022-08-07T05:38:58;2.70;;;1.53;;
4957;SDS011;2494;51.872;9.688;2022-08-07T05:41:26;1.43;;;1.30;;
4957;SDS011;2494;51.872;9.688;2022-08-07T05:43:54;1.53;;;1.43;;
4957;SDS011;2494;51.872;9.688;2022-08-07T05:46:21;1.50;;;1.40;;
4957;SDS011;2494;51.872;9.688;2022-08-07T05:48:48;2.17;;;1.70;;
4957;SDS011;2494;51.872;9.688;2022-08-07T05:51:15;1.60;;;1.50;;
4957;SDS011;2494;51.872;9.688;2022-08-07T05:53:42;1.53;;;1.30;;
4957;SDS011;2494;51.872;9.688;2022-08-07T05:56:08;1.73;;;1.40;;
4957;SDS011;2494;51.872;9.688;2022-08-07T05:58:36;1.30;;;1.20;;
4957;SDS011;2494;51.872;9.688;2022-08-07T06:01:03;1.50;;;1.40;;
4957;SDS011;2494;51.872;9.688;2022-08-07T06:03:30;1.90;;;1.60;;
4957;SDS011;2494;51.872;9.688;2022-08-07T06:05:57;2.30;;;1.40;;
4957;SDS011;2494;51.872;9.688;2022-08-07T06:08:24;1.53;;;1.43;;
4957;SDS011;2494;51.872;9.688;2022-08-07T06:10:50;2.03;;;1.37;;
4957;SDS011;2494;51.872;9.688;2022-08-07T06:13:17;2.70;;;1.67;;
4957;SDS011;2494;51.872;9.688;2022-08-07T06:15:45;2.17;;;1.53;;
4957;SDS011;2494;51.872;9.688;2022-08-07T06:18:13;1.93;;;1.30;;
4957;SDS011;2494;51.872;9.688;2022-08-07T06:20:39;1.50;;;1.37;;
4957;SDS011;2494;51.872;9.688;2022-08-07T06:23:06;1.60;;;1.50;;
4957;SDS011;2494;51.872;9.688;2022-08-07T06:25:33;1.90;;;1.80;;
4957;SDS011;2494;51.872;9.688;2022-08-07T06:28:02;2.17;;;1.40;;
4957;SDS011;2494;51.872;9.688;2022-08-07T06:30:29;1.53;;;1.43;;
4957;SDS011;2494;51.872;9.688;2022-08-07T06:32:57;2.10;;;1.50;;
4957;SDS011;2494;51.872;9.688;2022-08-07T06:35:23;1.63;;;1.27;;
4957;SDS011;2494;51.872;9.688;2022-08-07T06:37:49;2.90;;;1.40;;
4957;SDS011;2494;51.872;9.688;2022-08-07T06:40:16;1.30;;;1.20;;
4957;SDS011;2494;51.872;9.688;2022-08-07T06:42:42;1.87;;;1.30;;
4957;SDS011;2494;51.872;9.688;2022-08-07T06:45:12;1.60;;;1.50;;
4957;SDS011;2494;51.872;9.688;2022-08-07T06:47:38;1.40;;;1.30;;
4957;SDS011;2494;51.872;9.688;2022-08-07T06:50:07;1.30;;;1.20;;
4957;SDS011;2494;51.872;9.688;2022-08-07T06:52:35;1.00;;;0.90;;
4957;SDS011;2494;51.872;9.688;2022-08-07T06:55:03;1.73;;;1.40;;
4957;SDS011;2494;51.872;9.688;2022-08-07T06:57:29;1.33;;;1.03;;
4957;SDS011;2494;51.872;9.688;2022-08-07T06:59:56;1.27;;;1.00;;
4957;SDS011;2494;51.872;9.688;2022-08-07T07:02:24;1.13;;;1.00;;
4957;SDS011;2494;51.872;9.688;2022-08-07T07:04:51;2.90;;;1.10;;
4957;SDS011;2494;51.872;9.688;2022-08-07T07:07:19;1.10;;;0.90;;
4957;SDS011;2494;51.872;9.688;2022-08-07T07:09:46;1.13;;;0.90;;
4957;SDS011;2494;51.872;9.688;2022-08-07T07:12:21;1.10;;;1.00;;
4957;SDS011;2494;51.872;9.688;2022-08-07T07:14:50;0.87;;;0.80;;
4957;SDS011;2494;51.872;9.688;2022-08-07T07:17:19;1.37;;;0.70;;
4957;SDS011;2494;51.872;9.688;2022-08-07T07:19:47;1.10;;;1.00;;
4957;SDS011;2494;51.872;9.688;2022-08-07T07:22:15;1.30;;;0.90;;
4957;SDS011;2494;51.872;9.688;2022-08-07T07:24:44;5.40;;;0.80;;
4957;SDS011;2494;51.872;9.688;2022-08-07T07:27:12;1.17;;;0.80;;
4957;SDS011;2494;51.872;9.688;2022-08-07T07:29:41;1.10;;;1.00;;
4957;SDS011;2494;51.872;9.688;2022-08-07T07:32:09;2.30;;;0.60;;
4957;SDS011;2494;51.872;9.688;2022-08-07T07:34:37;1.07;;;0.70;;
4957;SDS011;2494;51.872;9.688;2022-08-07T07:37:04;0.80;;;0.80;;
4957;SDS011;2494;51.872;9.688;2022-08-07T07:39:32;2.30;;;0.80;;
4957;SDS011;2494;51.872;9.688;2022-08-07T07:42:01;1.00;;;0.60;;
4957;SDS011;2494;51.872;9.688;2022-08-07T07:44:28;0.70;;;0.60;;
4957;SDS011;2494;51.872;9.688;2022-08-07T07:46:56;0.63;;;0.63;;
4957;SDS011;2494;51.872;9.688;2022-08-07T07:49:25;0.90;;;0.60;;
4957;SDS011;2494;51.872;9.688;2022-08-07T07:51:52;1.43;;;0.60;;
4957;SDS011;2494;51.872;9.688;2022-08-07T07:54:21;0.90;;;0.73;;
4957;SDS011;2494;51.872;9.688;2022-08-07T07:56:48;1.00;;;0.87;;
4957;SDS011;2494;51.872;9.688;2022-08-07T07:59:17;1.03;;;0.90;;
4957;SDS011;2494;51.872;9.688;2022-08-07T08:01:45;2.40;;;0.60;;
4957;SDS011;2494;51.872;9.688;2022-08-07T08:04:11;0.80;;;0.60;;
4957;SDS011;2494;51.872;9.688;2022-08-07T08:06:38;1.57;;;0.70;;
4957;SDS011;2494;51.872;9.688;2022-08-07T08:09:06;1.23;;;0.60;;
4957;SDS011;2494;51.872;9.688;2022-08-07T08:11:33;1.03;;;0.70;;
4957;SDS011;2494;51.872;9.688;2022-08-07T08:14:00;1.20;;;0.60;;
4957;SDS011;2494;51.872;9.688;2022-08-07T08:16:30;1.43;;;0.57;;
4957;SDS011;2494;51.872;9.688;2022-08-07T08:18:58;0.60;;;0.60;;
4957;SDS011;2494;51.872;9.688;2022-08-07T08:21:24;0.87;;;0.73;;
4957;SDS011;2494;51.872;9.688;2022-08-07T08:24:09;1.03;;;0.70;;
4957;SDS011;2494;51.872;9.688;2022-08-07T08:26:54;0.90;;;0.70;;
4957;SDS011;2494;51.872;9.688;2022-08-07T08:29:35;0.87;;;0.70;;
4957;SDS011;2494;51.872;9.688;2022-08-07T08:32:04;2.50;;;0.70;;
4957;SDS011;2494;51.872;9.688;2022-08-07T08:34:31;0.60;;;0.57;;
4957;SDS011;2494;51.872;9.688;2022-08-07T08:36:59;0.80;;;0.60;;
4957;SDS011;2494;51.872;9.688;2022-08-07T08:39:27;1.57;;;0.90;;
4957;SDS011;2494;51.872;9.688;2022-08-07T08:41:56;1.27;;;0.53;;
4957;SDS011;2494;51.872;9.688;2022-08-07T08:44:26;0.80;;;0.60;;
4957;SDS011;2494;51.872;9.688;2022-08-07T08:46:58;2.30;;;0.77;;
4957;SDS011;2494;51.872;9.688;2022-08-07T08:49:30;0.70;;;0.60;;
4957;SDS011;2494;51.872;9.688;2022-08-07T08:51:58;1.93;;;0.80;;
4957;SDS011;2494;51.872;9.688;2022-08-07T08:54:28;1.43;;;0.80;;
4957;SDS011;2494;51.872;9.688;2022-08-07T08:56:55;0.90;;;0.70;;
4957;SDS011;2494;51.872;9.688;2022-08-07T08:59:24;0.90;;;0.70;;
4957;SDS011;2494;51.872;9.688;2022-08-07T09:02:03;2.20;;;0.87;;
4957;SDS011;2494;51.872;9.688;2022-08-07T09:04:36;0.77;;;0.60;;
4957;SDS011;2494;51.872;9.688;2022-08-07T09:07:07;1.43;;;0.70;;
4957;SDS011;2494;51.872;9.688;2022-08-07T09:09:40;2.20;;;0.73;;
4957;SDS011;2494;51.872;9.688;2022-08-07T09:12:11;1.57;;;0.70;;
4957;SDS011;2494;51.872;9.688;2022-08-07T09:14:44;0.70;;;0.60;;
4957;SDS011;2494;51.872;9.688;2022-08-07T09:17:17;1.07;;;0.50;;
4957;SDS011;2494;51.872;9.688;2022-08-07T09:19:51;0.90;;;0.60;;
4957;SDS011;2494;51.872;9.688;2022-08-07T09:22:24;2.50;;;0.60;;
4957;SDS011;2494;51.872;9.688;2022-08-07T09:24:56;0.90;;;0.60;;
4957;SDS011;2494;51.872;9.688;2022-08-07T09:27:27;0.70;;;0.60;;
4957;SDS011;2494;51.872;9.688;2022-08-07T09:29:55;1.23;;;0.60;;
4957;SDS011;2494;51.872;9.688;2022-08-07T09:32:24;1.00;;;0.70;;
4957;SDS011;2494;51.872;9.688;2022-08-07T09:34:57;0.80;;;0.70;;
4957;SDS011;2494;51.872;9.688;2022-08-07T09:37:27;1.17;;;0.60;;
4957;SDS011;2494;51.872;9.688;2022-08-07T09:39:57;0.70;;;0.70;;
4957;SDS011;2494;51.872;9.688;2022-08-07T09:42:33;0.83;;;0.80;;
4957;SDS011;2494;51.872;9.688;2022-08-07T09:45:03;1.20;;;0.70;;
4957;SDS011;2494;51.872;9.688;2022-08-07T09:47:36;0.80;;;0.60;;
4957;SDS011;2494;51.872;9.688;2022-08-07T09:50:07;0.90;;;0.67;;
4957;SDS011;2494;51.872;9.688;2022-08-07T09:52:36;1.07;;;0.60;;
4957;SDS011;2494;51.872;9.688;2022-08-07T09:55:08;0.80;;;0.60;;
4957;SDS011;2494;51.872;9.688;2022-08-07T10:00:23;0.60;;;0.50;;
4957;SDS011;2494;51.872;9.688;2022-08-07T10:03:08;0.83;;;0.63;;
4957;SDS011;2494;51.872;9.688;2022-08-07T10:08:32;0.60;;;0.40;;
4957;SDS011;2494;51.872;9.688;2022-08-07T10:11:03;1.90;;;0.77;;
4957;SDS011;2494;51.872;9.688;2022-08-07T10:13:43;2.13;;;0.60;;
4957;SDS011;2494;51.872;9.688;2022-08-07T10:16:14;1.33;;;0.70;;
4957;SDS011;2494;51.872;9.688;2022-08-07T10:18:56;1.43;;;0.70;;
4957;SDS011;2494;51.872;9.688;2022-08-07T10:21:29;0.90;;;0.60;;
4957;SDS011;2494;51.872;9.688;2022-08-07T10:24:03;1.20;;;0.60;;
4957;SDS011;2494;51.872;9.688;2022-08-07T10:26:35;1.13;;;0.57;;
4957;SDS011;2494;51.872;9.688;2022-08-07T10:29:13;1.37;;;0.70;;
4957;SDS011;2494;51.872;9.688;2022-08-07T10:31:52;1.10;;;0.57;;
4957;SDS011;2494;51.872;9.688;2022-08-07T10:34:26;0.83;;;0.60;;
4957;SDS011;2494;51.872;9.688;2022-08-07T10:36:58;1.33;;;0.70;;
4957;SDS011;2494;51.872;9.688;2022-08-07T10:39:32;0.87;;;0.60;;
4957;SDS011;2494;51.872;9.688;2022-08-07T10:42:05;0.73;;;0.63;;
4957;SDS011;2494;51.872;9.688;2022-08-07T10:44:38;1.00;;;0.70;;
4957;SDS011;2494;51.872;9.688;2022-08-07T10:47:11;0.80;;;0.60;;
4957;SDS011;2494;51.872;9.688;2022-08-07T10:49:39;1.20;;;0.60;;
4957;SDS011;2494;51.872;9.688;2022-08-07T10:52:07;1.47;;;0.70;;
4957;SDS011;2494;51.872;9.688;2022-08-07T10:54:40;0.60;;;0.60;;
4957;SDS011;2494;51.872;9.688;2022-08-07T10:57:09;1.87;;;0.80;;
4957;SDS011;2494;51.872;9.688;2022-08-07T10:59:44;0.70;;;0.60;;
4957;SDS011;2494;51.872;9.688;2022-08-07T11:02:14;0.70;;;0.60;;
4957;SDS011;2494;51.872;9.688;2022-08-07T11:04:54;0.80;;;0.80;;
4957;SDS011;2494;51.872;9.688;2022-08-07T11:07:24;1.27;;;0.73;;
4957;SDS011;2494;51.872;9.688;2022-08-07T11:09:57;0.90;;;0.70;;
4957;SDS011;2494;51.872;9.688;2022-08-07T11:12:25;0.70;;;0.60;;
4957;SDS011;2494;51.872;9.688;2022-08-07T11:14:54;1.20;;;0.67;;
4957;SDS011;2494;51.872;9.688;2022-08-07T11:17:23;1.13;;;0.60;;
4957;SDS011;2494;51.872;9.688;2022-08-07T11:19:52;0.80;;;0.70;;
4957;SDS011;2494;51.872;9.688;2022-08-07T11:22:23;0.60;;;0.50;;
4957;SDS011;2494;51.872;9.688;2022-08-07T11:24:52;1.77;;;1.00;;
4957;SDS011;2494;51.872;9.688;2022-08-07T11:27:26;1.10;;;0.70;;
4957;SDS011;2494;51.872;9.688;2022-08-07T11:29:54;0.60;;;0.50;;
4957;SDS011;2494;51.872;9.688;2022-08-07T11:32:27;0.70;;;0.60;;
4957;SDS011;2494;51.872;9.688;2022-08-07T11:34:56;0.80;;;0.73;;
4957;SDS011;2494;51.872;9.688;2022-08-07T11:37:26;1.37;;;0.80;;
4957;SDS011;2494;51.872;9.688;2022-08-07T11:40:01;0.80;;;0.60;;
4957;SDS011;2494;51.872;9.688;2022-08-07T11:42:36;1.70;;;0.77;;
4957;SDS011;2494;51.872;9.688;2022-08-07T11:45:09;1.20;;;0.60;;
4957;SDS011;2494;51.872;9.688;2022-08-07T11:47:48;0.90;;;0.60;;
4957;SDS011;2494;51.872;9.688;2022-08-07T11:50:20;0.83;;;0.60;;
4957;SDS011;2494;51.872;9.688;2022-08-07T11:52:55;3.63;;;0.70;;
4957;SDS011;2494;51.872;9.688;2022-08-07T11:55:31;0.60;;;0.60;;
4957;SDS011;2494;51.872;9.688;2022-08-07T11:58:04;2.53;;;0.70;;
4957;SDS011;2494;51.872;9.688;2022-08-07T12:00:37;1.33;;;0.70;;
4957;SDS011;2494;51.872;9.688;2022-08-07T12:05:54;0.97;;;0.87;;
4957;SDS011;2494;51.872;9.688;2022-08-07T12:08:23;1.03;;;0.70;;
4957;SDS011;2494;51.872;9.688;2022-08-07T12:10:53;0.83;;;0.60;;
4957;SDS011;2494;51.872;9.688;2022-08-07T12:13:24;0.80;;;0.70;;
4957;SDS011;2494;51.872;9.688;2022-08-07T12:15:53;0.70;;;0.50;;
4957;SDS011;2494;51.872;9.688;2022-08-07T12:18:21;0.70;;;0.60;;
4957;SDS011;2494;51.872;9.688;2022-08-07T12:20:51;0.87;;;0.60;;
4957;SDS011;2494;51.872;9.688;2022-08-07T12:23:27;1.07;;;0.97;;
4957;SDS011;2494;51.872;9.688;2022-08-07T12:25:57;1.03;;;0.70;;
4957;SDS011;2494;51.872;9.688;2022-08-07T12:28:27;1.50;;;1.40;;
4957;SDS011;2494;51.872;9.688;2022-08-07T12:31:00;1.53;;;0.60;;
4957;SDS011;2494;51.872;9.688;2022-08-07T12:33:28;0.70;;;0.60;;
4957;SDS011;2494;51.872;9.688;2022-08-07T12:35:56;1.13;;;0.73;;
4957;SDS011;2494;51.872;9.688;2022-08-07T12:38:23;1.20;;;1.10;;
4957;SDS011;2494;51.872;9.688;2022-08-07T12:40:51;0.73;;;0.70;;
4957;SDS011;2494;51.872;9.688;2022-08-07T12:43:19;1.00;;;0.70;;
4957;SDS011;2494;51.872;9.688;2022-08-07T12:45:51;2.90;;;0.70;;
4957;SDS011;2494;51.872;9.688;2022-08-07T12:48:23;0.67;;;0.60;;
4957;SDS011;2494;51.872;9.688;2022-08-07T12:50:54;0.70;;;0.60;;
4957;SDS011;2494;51.872;9.688;2022-08-07T12:53:24;0.60;;;0.50;;
4957;SDS011;2494;51.872;9.688;2022-08-07T12:55:55;0.70;;;0.60;;
4957;SDS011;2494;51.872;9.688;2022-08-07T12:58:23;1.43;;;0.60;;
4957;SDS011;2494;51.872;9.688;2022-08-07T13:00:59;0.80;;;0.70;;
4957;SDS011;2494;51.872;9.688;2022-08-07T13:03:34;1.40;;;0.77;;
4957;SDS011;2494;51.872;9.688;2022-08-07T13:06:08;2.47;;;0.70;;
4957;SDS011;2494;51.872;9.688;2022-08-07T13:08:42;1.97;;;0.70;;
4957;SDS011;2494;51.872;9.688;2022-08-07T13:11:20;3.60;;;0.60;;
4957;SDS011;2494;51.872;9.688;2022-08-07T13:13:50;1.40;;;0.90;;
4957;SDS011;2494;51.872;9.688;2022-08-07T13:16:23;1.00;;;0.80;;
4957;SDS011;2494;51.872;9.688;2022-08-07T13:18:52;0.80;;;0.80;;
4957;SDS011;2494;51.872;9.688;2022-08-07T13:21:23;0.90;;;0.90;;
4957;SDS011;2494;51.872;9.688;2022-08-07T13:23:52;0.70;;;0.60;;
4957;SDS011;2494;51.872;9.688;2022-08-07T13:26:24;0.70;;;0.60;;
4957;SDS011;2494;51.872;9.688;2022-08-07T13:28:56;1.10;;;0.70;;
4957;SDS011;2494;51.872;9.688;2022-08-07T13:31:28;2.20;;;0.70;;
4957;SDS011;2494;51.872;9.688;2022-08-07T13:33:56;0.70;;;0.60;;
4957;SDS011;2494;51.872;9.688;2022-08-07T13:36:25;1.33;;;0.60;;
4957;SDS011;2494;51.872;9.688;2022-08-07T13:38:54;0.70;;;0.60;;
4957;SDS011;2494;51.872;9.688;2022-08-07T13:41:26;0.60;;;0.60;;
4957;SDS011;2494;51.872;9.688;2022-08-07T13:43:59;0.93;;;0.70;;
4957;SDS011;2494;51.872;9.688;2022-08-07T13:46:29;1.67;;;0.60;;
4957;SDS011;2494;51.872;9.688;2022-08-07T13:48:56;0.90;;;0.70;;
4957;SDS011;2494;51.872;9.688;2022-08-07T13:51:23;1.13;;;0.70;;
4957;SDS011;2494;51.872;9.688;2022-08-07T13:53:51;2.33;;;0.93;;
4957;SDS011;2494;51.872;9.688;2022-08-07T13:56:19;1.10;;;0.60;;
4957;SDS011;2494;51.872;9.688;2022-08-07T13:58:46;0.97;;;0.67;;
4957;SDS011;2494;51.872;9.688;2022-08-07T14:01:26;1.23;;;0.80;;
4957;SDS011;2494;51.872;9.688;2022-08-07T14:03:55;1.40;;;0.70;;
4957;SDS011;2494;51.872;9.688;2022-08-07T14:06:21;6.83;;;1.17;;
4957;SDS011;2494;51.872;9.688;2022-08-07T14:08:49;1.60;;;0.70;;
4957;SDS011;2494;51.872;9.688;2022-08-07T14:11:16;0.50;;;0.50;;
4957;SDS011;2494;51.872;9.688;2022-08-07T14:13:46;1.40;;;0.67;;
4957;SDS011;2494;51.872;9.688;2022-08-07T14:16:17;0.70;;;0.67;;
4957;SDS011;2494;51.872;9.688;2022-08-07T14:18:44;5.90;;;0.70;;
4957;SDS011;2494;51.872;9.688;2022-08-07T14:21:13;0.63;;;0.60;;
4957;SDS011;2494;51.872;9.688;2022-08-07T14:23:42;0.67;;;0.60;;
4957;SDS011;2494;51.872;9.688;2022-08-07T14:26:11;3.53;;;0.73;;
4957;SDS011;2494;51.872;9.688;2022-08-07T14:28:40;1.97;;;0.77;;
4957;SDS011;2494;51.872;9.688;2022-08-07T14:31:08;1.00;;;0.80;;
4957;SDS011;2494;51.872;9.688;2022-08-07T14:33:34;11.77;;;0.87;;
4957;SDS011;2494;51.872;9.688;2022-08-07T14:36:01;0.90;;;0.80;;
4957;SDS011;2494;51.872;9.688;2022-08-07T14:38:29;2.30;;;0.70;;
4957;SDS011;2494;51.872;9.688;2022-08-07T14:40:58;1.40;;;0.67;;
4957;SDS011;2494;51.872;9.688;2022-08-07T14:43:25;1.10;;;0.60;;
4957;SDS011;2494;51.872;9.688;2022-08-07T14:45:53;0.80;;;0.80;;
4957;SDS011;2494;51.872;9.688;2022-08-07T14:48:20;1.97;;;0.77;;
4957;SDS011;2494;51.872;9.688;2022-08-07T14:50:48;0.70;;;0.60;;
4957;SDS011;2494;51.872;9.688;2022-08-07T14:53:15;0.87;;;0.80;;
4957;SDS011;2494;51.872;9.688;2022-08-07T14:55:43;1.53;;;0.70;;
4957;SDS011;2494;51.872;9.688;2022-08-07T14:58:11;1.77;;;0.70;;
4957;SDS011;2494;51.872;9.688;2022-08-07T15:00:38;1.10;;;0.80;;
4957;SDS011;2494;51.872;9.688;2022-08-07T15:03:06;1.90;;;0.80;;
4957;SDS011;2494;51.872;9.688;2022-08-07T15:05:34;0.97;;;0.73;;
4957;SDS011;2494;51.872;9.688;2022-08-07T15:08:02;2.73;;;0.70;;
4957;SDS011;2494;51.872;9.688;2022-08-07T15:10:29;1.47;;;0.70;;
4957;SDS011;2494;51.872;9.688;2022-08-07T15:12:58;0.80;;;0.80;;
4957;SDS011;2494;51.872;9.688;2022-08-07T15:15:28;1.47;;;0.60;;
4957;SDS011;2494;51.872;9.688;2022-08-07T15:18:01;0.80;;;0.70;;
4957;SDS011;2494;51.872;9.688;2022-08-07T15:20:29;1.47;;;0.70;;
4957;SDS011;2494;51.872;9.688;2022-08-07T15:22:58;0.70;;;0.70;;
4957;SDS011;2494;51.872;9.688;2022-08-07T15:25:25;0.70;;;0.70;;
4957;SDS011;2494;51.872;9.688;2022-08-07T15:27:58;0.87;;;0.70;;
4957;SDS011;2494;51.872;9.688;2022-08-07T15:30:25;1.80;;;0.90;;
4957;SDS011;2494;51.872;9.688;2022-08-07T15:32:52;2.17;;;0.60;;
4957;SDS011;2494;51.872;9.688;2022-08-07T15:35:20;2.10;;;0.70;;